National Weather Service United States Department of Commerce


000
FTPA31 PHFO 191736
TAFSTU
TAF
NSTU 191736Z 1918/2018 VRB06KT P6SM FEW020 SCT040 BKN100=


695
SAZS31 NSTU 191850
MTRPPG
METAR NSTU 191850Z VRB03KT 12SM FEW022 SCT040 BKN100 29/26 A2986 RMK
SLP112 T02870257=



METAR Formatted Surface Weather Observation  Issued: 11/19/2018 07:50:05 AM SST

NSTU Observation History

 

Significant Weather Charts